sensor_id;sensor_type;location;lat;lon;timestamp;P1;durP1;ratioP1;P2;durP2;ratioP2
65279;SDS011;51878;55.748;48.742;2023-05-14T00:02:59;2.70;;;2.22;;
65279;SDS011;51878;55.748;48.742;2023-05-14T00:08:01;3.70;;;2.10;;
65279;SDS011;51878;55.748;48.742;2023-05-14T00:13:03;2.42;;;2.22;;
65279;SDS011;51878;55.748;48.742;2023-05-14T00:18:05;5.55;;;2.38;;
65279;SDS011;51878;55.748;48.742;2023-05-14T00:23:08;3.22;;;2.60;;
65279;SDS011;51878;55.748;48.742;2023-05-14T00:28:10;4.50;;;3.10;;
65279;SDS011;51878;55.748;48.742;2023-05-14T00:33:12;4.32;;;2.80;;
65279;SDS011;51878;55.748;48.742;2023-05-14T00:38:15;3.67;;;2.95;;
65279;SDS011;51878;55.748;48.742;2023-05-14T00:43:20;3.78;;;3.05;;
65279;SDS011;51878;55.748;48.742;2023-05-14T00:48:23;5.30;;;3.50;;
65279;SDS011;51878;55.748;48.742;2023-05-14T00:53:26;4.40;;;3.50;;
65279;SDS011;51878;55.748;48.742;2023-05-14T00:58:29;4.25;;;3.38;;
65279;SDS011;51878;55.748;48.742;2023-05-14T01:03:31;5.85;;;3.75;;
65279;SDS011;51878;55.748;48.742;2023-05-14T01:14:19;4.20;;;3.10;;
65279;SDS011;51878;55.748;48.742;2023-05-14T01:19:28;4.03;;;3.08;;
65279;SDS011;51878;55.748;48.742;2023-05-14T01:24:36;6.45;;;3.38;;
65279;SDS011;51878;55.748;48.742;2023-05-14T01:29:39;3.20;;;2.90;;
65279;SDS011;51878;55.748;48.742;2023-05-14T01:34:46;4.25;;;2.92;;
65279;SDS011;51878;55.748;48.742;2023-05-14T01:39:49;3.45;;;3.00;;
65279;SDS011;51878;55.748;48.742;2023-05-14T01:44:53;3.90;;;2.97;;
65279;SDS011;51878;55.748;48.742;2023-05-14T01:49:56;4.03;;;2.92;;
65279;SDS011;51878;55.748;48.742;2023-05-14T01:54:58;3.67;;;2.97;;
65279;SDS011;51878;55.748;48.742;2023-05-14T02:00:01;4.13;;;3.20;;
65279;SDS011;51878;55.748;48.742;2023-05-14T02:05:07;3.13;;;2.70;;
65279;SDS011;51878;55.748;48.742;2023-05-14T02:10:10;4.57;;;2.88;;
65279;SDS011;51878;55.748;48.742;2023-05-14T02:15:13;5.30;;;3.03;;
65279;SDS011;51878;55.748;48.742;2023-05-14T02:20:15;8.70;;;3.08;;
65279;SDS011;51878;55.748;48.742;2023-05-14T02:25:20;3.60;;;3.30;;
65279;SDS011;51878;55.748;48.742;2023-05-14T02:30:22;3.92;;;3.38;;
65279;SDS011;51878;55.748;48.742;2023-05-14T02:35:24;4.15;;;3.35;;
65279;SDS011;51878;55.748;48.742;2023-05-14T02:40:27;4.35;;;3.30;;
65279;SDS011;51878;55.748;48.742;2023-05-14T02:45:29;4.88;;;3.47;;
65279;SDS011;51878;55.748;48.742;2023-05-14T02:50:31;4.68;;;3.30;;
65279;SDS011;51878;55.748;48.742;2023-05-14T02:55:34;7.55;;;3.00;;
65279;SDS011;51878;55.748;48.742;2023-05-14T03:00:37;5.43;;;3.47;;
65279;SDS011;51878;55.748;48.742;2023-05-14T03:05:39;3.30;;;2.95;;
65279;SDS011;51878;55.748;48.742;2023-05-14T03:10:41;3.50;;;3.20;;
65279;SDS011;51878;55.748;48.742;2023-05-14T03:15:43;4.03;;;3.20;;
65279;SDS011;51878;55.748;48.742;2023-05-14T03:20:47;6.95;;;3.75;;
65279;SDS011;51878;55.748;48.742;2023-05-14T03:25:49;5.00;;;3.58;;
65279;SDS011;51878;55.748;48.742;2023-05-14T03:30:52;6.50;;;3.50;;
65279;SDS011;51878;55.748;48.742;2023-05-14T03:35:54;4.25;;;3.55;;
65279;SDS011;51878;55.748;48.742;2023-05-14T03:40:56;4.72;;;3.70;;
65279;SDS011;51878;55.748;48.742;2023-05-14T03:45:58;6.53;;;4.10;;
65279;SDS011;51878;55.748;48.742;2023-05-14T03:51:01;3.55;;;3.15;;
65279;SDS011;51878;55.748;48.742;2023-05-14T03:56:03;4.55;;;3.47;;
65279;SDS011;51878;55.748;48.742;2023-05-14T04:01:05;4.95;;;3.40;;
65279;SDS011;51878;55.748;48.742;2023-05-14T04:06:08;7.72;;;3.83;;
65279;SDS011;51878;55.748;48.742;2023-05-14T04:11:10;5.38;;;3.53;;
65279;SDS011;51878;55.748;48.742;2023-05-14T04:16:12;4.63;;;3.33;;
65279;SDS011;51878;55.748;48.742;2023-05-14T04:21:15;5.45;;;3.40;;
65279;SDS011;51878;55.748;48.742;2023-05-14T04:26:17;4.13;;;3.25;;
65279;SDS011;51878;55.748;48.742;2023-05-14T04:31:19;6.53;;;3.97;;
65279;SDS011;51878;55.748;48.742;2023-05-14T04:36:21;4.43;;;3.83;;
65279;SDS011;51878;55.748;48.742;2023-05-14T04:41:24;5.00;;;4.05;;
65279;SDS011;51878;55.748;48.742;2023-05-14T04:46:26;4.80;;;4.30;;
65279;SDS011;51878;55.748;48.742;2023-05-14T04:51:29;5.00;;;3.85;;
65279;SDS011;51878;55.748;48.742;2023-05-14T04:56:32;4.97;;;4.22;;
65279;SDS011;51878;55.748;48.742;2023-05-14T05:01:36;5.85;;;3.97;;
65279;SDS011;51878;55.748;48.742;2023-05-14T05:06:40;5.47;;;4.28;;
65279;SDS011;51878;55.748;48.742;2023-05-14T05:11:42;6.60;;;4.53;;
65279;SDS011;51878;55.748;48.742;2023-05-14T05:16:44;5.78;;;4.10;;
65279;SDS011;51878;55.748;48.742;2023-05-14T05:21:46;6.03;;;4.20;;
65279;SDS011;51878;55.748;48.742;2023-05-14T05:26:49;4.10;;;3.63;;
65279;SDS011;51878;55.748;48.742;2023-05-14T05:31:52;4.90;;;3.45;;
65279;SDS011;51878;55.748;48.742;2023-05-14T05:36:54;5.78;;;4.10;;
65279;SDS011;51878;55.748;48.742;2023-05-14T05:41:57;4.10;;;3.25;;
65279;SDS011;51878;55.748;48.742;2023-05-14T05:46:59;3.95;;;3.30;;
65279;SDS011;51878;55.748;48.742;2023-05-14T05:52:01;16.90;;;3.97;;
65279;SDS011;51878;55.748;48.742;2023-05-14T05:57:04;7.05;;;3.63;;
65279;SDS011;51878;55.748;48.742;2023-05-14T06:02:07;4.68;;;3.45;;
65279;SDS011;51878;55.748;48.742;2023-05-14T06:07:09;6.05;;;3.40;;
65279;SDS011;51878;55.748;48.742;2023-05-14T06:12:11;5.82;;;3.40;;
65279;SDS011;51878;55.748;48.742;2023-05-14T06:17:19;9.38;;;3.85;;
65279;SDS011;51878;55.748;48.742;2023-05-14T06:22:22;5.53;;;3.80;;
65279;SDS011;51878;55.748;48.742;2023-05-14T06:27:24;8.30;;;3.67;;
65279;SDS011;51878;55.748;48.742;2023-05-14T06:32:26;7.28;;;3.80;;
65279;SDS011;51878;55.748;48.742;2023-05-14T06:37:31;4.22;;;3.53;;
65279;SDS011;51878;55.748;48.742;2023-05-14T06:42:34;4.32;;;3.40;;
65279;SDS011;51878;55.748;48.742;2023-05-14T06:47:39;6.03;;;3.30;;
65279;SDS011;51878;55.748;48.742;2023-05-14T06:52:47;6.43;;;3.63;;
65279;SDS011;51878;55.748;48.742;2023-05-14T06:57:49;4.85;;;3.15;;
65279;SDS011;51878;55.748;48.742;2023-05-14T07:02:51;11.23;;;3.30;;
65279;SDS011;51878;55.748;48.742;2023-05-14T07:08:07;7.97;;;3.38;;
65279;SDS011;51878;55.748;48.742;2023-05-14T07:13:37;4.13;;;2.97;;
65279;SDS011;51878;55.748;48.742;2023-05-14T07:18:43;8.25;;;3.00;;
65279;SDS011;51878;55.748;48.742;2023-05-14T07:23:50;3.65;;;2.72;;
65279;SDS011;51878;55.748;48.742;2023-05-14T07:28:58;5.95;;;2.72;;
65279;SDS011;51878;55.748;48.742;2023-05-14T07:34:01;2.42;;;2.22;;
65279;SDS011;51878;55.748;48.742;2023-05-14T07:39:21;7.23;;;2.37;;
65279;SDS011;51878;55.748;48.742;2023-05-14T07:44:31;2.50;;;2.20;;
65279;SDS011;51878;55.748;48.742;2023-05-14T07:49:39;6.07;;;2.75;;
65279;SDS011;51878;55.748;48.742;2023-05-14T07:54:51;4.88;;;2.55;;
65279;SDS011;51878;55.748;48.742;2023-05-14T08:00:09;4.60;;;2.30;;
65279;SDS011;51878;55.748;48.742;2023-05-14T08:05:13;4.93;;;2.40;;
65279;SDS011;51878;55.748;48.742;2023-05-14T08:10:30;2.78;;;2.53;;
65279;SDS011;51878;55.748;48.742;2023-05-14T08:15:46;5.28;;;3.13;;
65279;SDS011;51878;55.748;48.742;2023-05-14T08:21:16;4.70;;;2.75;;
65279;SDS011;51878;55.748;48.742;2023-05-14T08:26:19;5.88;;;3.00;;
65279;SDS011;51878;55.748;48.742;2023-05-14T08:31:22;4.03;;;2.40;;
65279;SDS011;51878;55.748;48.742;2023-05-14T08:36:28;3.03;;;2.20;;
65279;SDS011;51878;55.748;48.742;2023-05-14T08:41:47;5.53;;;2.60;;
65279;SDS011;51878;55.748;48.742;2023-05-14T08:47:03;4.63;;;2.63;;
65279;SDS011;51878;55.748;48.742;2023-05-14T08:52:12;3.20;;;2.50;;
65279;SDS011;51878;55.748;48.742;2023-05-14T08:57:25;2.47;;;2.20;;
65279;SDS011;51878;55.748;48.742;2023-05-14T09:02:29;2.40;;;2.20;;
65279;SDS011;51878;55.748;48.742;2023-05-14T09:07:32;3.10;;;2.20;;
65279;SDS011;51878;55.748;48.742;2023-05-14T09:12:34;3.38;;;1.98;;
65279;SDS011;51878;55.748;48.742;2023-05-14T09:17:39;10.85;;;2.55;;
65279;SDS011;51878;55.748;48.742;2023-05-14T09:22:42;2.55;;;2.20;;
65279;SDS011;51878;55.748;48.742;2023-05-14T09:27:45;2.47;;;2.20;;
65279;SDS011;51878;55.748;48.742;2023-05-14T09:32:52;3.78;;;2.42;;
65279;SDS011;51878;55.748;48.742;2023-05-14T09:37:56;5.00;;;3.17;;
65279;SDS011;51878;55.748;48.742;2023-05-14T09:43:03;2.40;;;2.20;;
65279;SDS011;51878;55.748;48.742;2023-05-14T09:48:06;4.20;;;2.25;;
65279;SDS011;51878;55.748;48.742;2023-05-14T09:53:18;3.08;;;2.28;;
65279;SDS011;51878;55.748;48.742;2023-05-14T09:58:23;6.78;;;2.92;;
65279;SDS011;51878;55.748;48.742;2023-05-14T10:03:39;10.52;;;2.28;;
65279;SDS011;51878;55.748;48.742;2023-05-14T10:08:45;4.95;;;2.53;;
65279;SDS011;51878;55.748;48.742;2023-05-14T10:14:01;6.90;;;2.53;;
65279;SDS011;51878;55.748;48.742;2023-05-14T10:19:11;6.28;;;3.00;;
65279;SDS011;51878;55.748;48.742;2023-05-14T10:24:15;8.35;;;3.70;;
65279;SDS011;51878;55.748;48.742;2023-05-14T10:29:30;4.78;;;2.65;;
65279;SDS011;51878;55.748;48.742;2023-05-14T10:34:42;5.57;;;2.28;;
65279;SDS011;51878;55.748;48.742;2023-05-14T10:39:51;2.22;;;1.80;;
65279;SDS011;51878;55.748;48.742;2023-05-14T10:45:29;3.60;;;1.70;;
65279;SDS011;51878;55.748;48.742;2023-05-14T10:50:36;2.60;;;1.90;;
65279;SDS011;51878;55.748;48.742;2023-05-14T10:56:21;2.30;;;1.90;;
65279;SDS011;51878;55.748;48.742;2023-05-14T11:01:45;5.22;;;2.17;;
65279;SDS011;51878;55.748;48.742;2023-05-14T11:06:53;3.83;;;2.45;;
65279;SDS011;51878;55.748;48.742;2023-05-14T11:12:08;3.30;;;2.60;;
65279;SDS011;51878;55.748;48.742;2023-05-14T11:17:11;2.13;;;1.65;;
65279;SDS011;51878;55.748;48.742;2023-05-14T11:22:14;1.80;;;1.60;;
65279;SDS011;51878;55.748;48.742;2023-05-14T11:27:16;5.45;;;1.90;;
65279;SDS011;51878;55.748;48.742;2023-05-14T11:32:23;3.10;;;1.70;;
65279;SDS011;51878;55.748;48.742;2023-05-14T11:37:28;3.22;;;1.67;;
65279;SDS011;51878;55.748;48.742;2023-05-14T11:42:31;1.88;;;1.70;;
65279;SDS011;51878;55.748;48.742;2023-05-14T11:47:35;1.95;;;1.75;;
65279;SDS011;51878;55.748;48.742;2023-05-14T11:52:46;2.42;;;2.00;;
65279;SDS011;51878;55.748;48.742;2023-05-14T11:57:53;3.38;;;2.40;;
65279;SDS011;51878;55.748;48.742;2023-05-14T12:02:57;6.68;;;2.75;;
65279;SDS011;51878;55.748;48.742;2023-05-14T12:08:19;3.70;;;2.47;;
65279;SDS011;51878;55.748;48.742;2023-05-14T12:13:35;2.85;;;2.40;;
65279;SDS011;51878;55.748;48.742;2023-05-14T12:19:07;3.53;;;2.13;;
65279;SDS011;51878;55.748;48.742;2023-05-14T12:24:14;5.90;;;2.08;;
65279;SDS011;51878;55.748;48.742;2023-05-14T12:29:39;4.75;;;1.98;;
65279;SDS011;51878;55.748;48.742;2023-05-14T12:34:41;2.50;;;1.85;;
65279;SDS011;51878;55.748;48.742;2023-05-14T12:39:46;3.50;;;2.20;;
65279;SDS011;51878;55.748;48.742;2023-05-14T12:44:51;4.30;;;2.10;;
65279;SDS011;51878;55.748;48.742;2023-05-14T12:49:53;2.60;;;1.83;;
65279;SDS011;51878;55.748;48.742;2023-05-14T12:54:57;3.80;;;2.25;;
65279;SDS011;51878;55.748;48.742;2023-05-14T13:00:40;7.95;;;2.03;;
65279;SDS011;51878;55.748;48.742;2023-05-14T13:05:42;4.07;;;2.00;;
65279;SDS011;51878;55.748;48.742;2023-05-14T13:10:45;3.13;;;2.50;;
65279;SDS011;51878;55.748;48.742;2023-05-14T13:15:50;2.67;;;2.20;;
65279;SDS011;51878;55.748;48.742;2023-05-14T13:20:54;3.03;;;2.30;;
65279;SDS011;51878;55.748;48.742;2023-05-14T13:26:07;2.83;;;2.30;;
65279;SDS011;51878;55.748;48.742;2023-05-14T13:31:10;4.35;;;2.85;;
65279;SDS011;51878;55.748;48.742;2023-05-14T13:36:13;4.07;;;2.88;;
65279;SDS011;51878;55.748;48.742;2023-05-14T13:41:16;3.33;;;2.78;;
65279;SDS011;51878;55.748;48.742;2023-05-14T13:46:19;3.97;;;2.60;;
65279;SDS011;51878;55.748;48.742;2023-05-14T13:51:22;6.85;;;2.75;;
65279;SDS011;51878;55.748;48.742;2023-05-14T13:56:26;3.35;;;2.92;;
65279;SDS011;51878;55.748;48.742;2023-05-14T14:01:36;3.45;;;2.53;;
65279;SDS011;51878;55.748;48.742;2023-05-14T14:08:06;3.65;;;2.90;;
65279;SDS011;51878;55.748;48.742;2023-05-14T14:13:48;2.78;;;2.55;;
65279;SDS011;51878;55.748;48.742;2023-05-14T14:18:53;3.05;;;2.65;;
65279;SDS011;51878;55.748;48.742;2023-05-14T14:23:55;2.58;;;2.38;;
65279;SDS011;51878;55.748;48.742;2023-05-14T14:28:58;4.80;;;2.70;;
65279;SDS011;51878;55.748;48.742;2023-05-14T14:34:00;3.30;;;2.20;;
65279;SDS011;51878;55.748;48.742;2023-05-14T14:39:02;3.38;;;1.92;;
65279;SDS011;51878;55.748;48.742;2023-05-14T14:44:05;5.30;;;1.90;;
65279;SDS011;51878;55.748;48.742;2023-05-14T14:49:07;1.60;;;1.50;;
65279;SDS011;51878;55.748;48.742;2023-05-14T14:54:11;2.28;;;1.55;;
65279;SDS011;51878;55.748;48.742;2023-05-14T14:59:13;2.50;;;1.75;;
65279;SDS011;51878;55.748;48.742;2023-05-14T15:04:15;2.22;;;1.90;;
65279;SDS011;51878;55.748;48.742;2023-05-14T15:09:18;2.85;;;1.95;;
65279;SDS011;51878;55.748;48.742;2023-05-14T15:14:20;8.23;;;2.70;;
65279;SDS011;51878;55.748;48.742;2023-05-14T15:19:22;2.42;;;1.73;;
65279;SDS011;51878;55.748;48.742;2023-05-14T15:24:24;4.13;;;1.95;;
65279;SDS011;51878;55.748;48.742;2023-05-14T15:29:26;1.98;;;1.70;;
65279;SDS011;51878;55.748;48.742;2023-05-14T15:34:31;2.28;;;1.80;;
65279;SDS011;51878;55.748;48.742;2023-05-14T15:39:33;2.92;;;1.90;;
65279;SDS011;51878;55.748;48.742;2023-05-14T15:44:36;2.38;;;2.10;;
65279;SDS011;51878;55.748;48.742;2023-05-14T15:49:39;1.90;;;1.80;;
65279;SDS011;51878;55.748;48.742;2023-05-14T15:54:43;2.72;;;2.30;;
65279;SDS011;51878;55.748;48.742;2023-05-14T15:59:47;4.82;;;2.40;;
65279;SDS011;51878;55.748;48.742;2023-05-14T16:04:49;2.85;;;2.13;;
65279;SDS011;51878;55.748;48.742;2023-05-14T16:09:51;4.82;;;2.25;;
65279;SDS011;51878;55.748;48.742;2023-05-14T16:14:53;2.25;;;2.00;;
65279;SDS011;51878;55.748;48.742;2023-05-14T16:20:00;3.95;;;2.17;;
65279;SDS011;51878;55.748;48.742;2023-05-14T16:25:09;5.03;;;2.60;;
65279;SDS011;51878;55.748;48.742;2023-05-14T16:30:14;3.25;;;2.15;;
65279;SDS011;51878;55.748;48.742;2023-05-14T16:35:16;3.08;;;2.00;;
65279;SDS011;51878;55.748;48.742;2023-05-14T16:40:19;2.25;;;2.05;;
65279;SDS011;51878;55.748;48.742;2023-05-14T16:45:23;2.08;;;1.65;;
65279;SDS011;51878;55.748;48.742;2023-05-14T16:50:26;4.00;;;2.00;;
65279;SDS011;51878;55.748;48.742;2023-05-14T16:55:30;3.60;;;2.72;;
65279;SDS011;51878;55.748;48.742;2023-05-14T17:00:32;5.63;;;2.50;;
65279;SDS011;51878;55.748;48.742;2023-05-14T17:05:34;8.13;;;4.28;;
65279;SDS011;51878;55.748;48.742;2023-05-14T17:10:36;3.60;;;2.15;;
65279;SDS011;51878;55.748;48.742;2023-05-14T17:15:39;2.75;;;2.33;;
65279;SDS011;51878;55.748;48.742;2023-05-14T17:20:42;4.50;;;2.63;;
65279;SDS011;51878;55.748;48.742;2023-05-14T17:25:44;2.92;;;2.50;;
65279;SDS011;51878;55.748;48.742;2023-05-14T17:30:47;4.50;;;2.40;;
65279;SDS011;51878;55.748;48.742;2023-05-14T17:35:51;3.53;;;2.42;;
65279;SDS011;51878;55.748;48.742;2023-05-14T17:40:54;3.55;;;2.60;;
65279;SDS011;51878;55.748;48.742;2023-05-14T17:46:00;3.22;;;2.40;;
65279;SDS011;51878;55.748;48.742;2023-05-14T17:51:02;3.97;;;2.20;;
65279;SDS011;51878;55.748;48.742;2023-05-14T17:56:07;3.17;;;2.00;;
65279;SDS011;51878;55.748;48.742;2023-05-14T18:01:09;2.88;;;2.13;;
65279;SDS011;51878;55.748;48.742;2023-05-14T18:06:12;3.50;;;1.90;;
65279;SDS011;51878;55.748;48.742;2023-05-14T18:11:14;1.98;;;1.60;;
65279;SDS011;51878;55.748;48.742;2023-05-14T18:16:17;3.17;;;1.83;;
65279;SDS011;51878;55.748;48.742;2023-05-14T18:21:19;2.50;;;1.70;;
65279;SDS011;51878;55.748;48.742;2023-05-14T18:26:21;3.80;;;2.00;;
65279;SDS011;51878;55.748;48.742;2023-05-14T18:31:23;2.10;;;1.90;;
65279;SDS011;51878;55.748;48.742;2023-05-14T18:36:28;2.40;;;1.70;;
65279;SDS011;51878;55.748;48.742;2023-05-14T18:41:33;2.03;;;1.73;;
65279;SDS011;51878;55.748;48.742;2023-05-14T18:46:35;2.45;;;1.70;;
65279;SDS011;51878;55.748;48.742;2023-05-14T18:51:38;1.60;;;1.50;;
65279;SDS011;51878;55.748;48.742;2023-05-14T18:56:41;1.98;;;1.73;;
65279;SDS011;51878;55.748;48.742;2023-05-14T19:01:50;2.47;;;1.58;;
65279;SDS011;51878;55.748;48.742;2023-05-14T19:07:02;1.90;;;1.52;;
65279;SDS011;51878;55.748;48.742;2023-05-14T19:12:05;6.60;;;1.67;;
65279;SDS011;51878;55.748;48.742;2023-05-14T19:17:08;12.65;;;1.50;;
65279;SDS011;51878;55.748;48.742;2023-05-14T19:22:10;2.15;;;1.67;;
65279;SDS011;51878;55.748;48.742;2023-05-14T19:27:12;1.40;;;1.30;;
65279;SDS011;51878;55.748;48.742;2023-05-14T19:32:17;1.52;;;1.42;;
65279;SDS011;51878;55.748;48.742;2023-05-14T19:37:19;1.92;;;1.50;;
65279;SDS011;51878;55.748;48.742;2023-05-14T19:42:22;1.40;;;1.30;;
65279;SDS011;51878;55.748;48.742;2023-05-14T19:47:25;3.05;;;1.40;;
65279;SDS011;51878;55.748;48.742;2023-05-14T19:52:30;1.65;;;1.30;;
65279;SDS011;51878;55.748;48.742;2023-05-14T19:57:33;3.63;;;1.35;;
65279;SDS011;51878;55.748;48.742;2023-05-14T20:02:35;4.18;;;1.40;;
65279;SDS011;51878;55.748;48.742;2023-05-14T20:07:38;1.42;;;1.20;;
65279;SDS011;51878;55.748;48.742;2023-05-14T20:12:41;1.80;;;1.30;;
65279;SDS011;51878;55.748;48.742;2023-05-14T20:17:45;1.42;;;1.33;;
65279;SDS011;51878;55.748;48.742;2023-05-14T20:22:48;1.35;;;1.05;;
65279;SDS011;51878;55.748;48.742;2023-05-14T20:27:55;2.58;;;1.35;;
65279;SDS011;51878;55.748;48.742;2023-05-14T20:33:06;5.03;;;1.20;;
65279;SDS011;51878;55.748;48.742;2023-05-14T20:38:09;3.67;;;1.40;;
65279;SDS011;51878;55.748;48.742;2023-05-14T20:43:13;1.77;;;1.20;;
65279;SDS011;51878;55.748;48.742;2023-05-14T20:48:15;1.63;;;1.20;;
65279;SDS011;51878;55.748;48.742;2023-05-14T20:53:18;4.00;;;1.17;;
65279;SDS011;51878;55.748;48.742;2023-05-14T20:58:20;3.47;;;1.65;;
65279;SDS011;51878;55.748;48.742;2023-05-14T21:03:22;1.10;;;1.00;;
65279;SDS011;51878;55.748;48.742;2023-05-14T21:08:28;1.20;;;1.00;;
65279;SDS011;51878;55.748;48.742;2023-05-14T21:13:30;3.28;;;1.10;;
65279;SDS011;51878;55.748;48.742;2023-05-14T21:18:33;2.50;;;1.05;;
65279;SDS011;51878;55.748;48.742;2023-05-14T21:23:35;1.30;;;1.20;;
65279;SDS011;51878;55.748;48.742;2023-05-14T21:28:37;2.65;;;1.10;;
65279;SDS011;51878;55.748;48.742;2023-05-14T21:33:39;1.10;;;1.00;;
65279;SDS011;51878;55.748;48.742;2023-05-14T21:38:41;0.88;;;0.88;;
65279;SDS011;51878;55.748;48.742;2023-05-14T21:43:44;2.10;;;1.20;;
65279;SDS011;51878;55.748;48.742;2023-05-14T21:48:46;2.08;;;1.60;;
65279;SDS011;51878;55.748;48.742;2023-05-14T21:53:49;1.70;;;1.00;;
65279;SDS011;51878;55.748;48.742;2023-05-14T21:58:51;2.85;;;1.20;;
65279;SDS011;51878;55.748;48.742;2023-05-14T22:03:55;1.73;;;0.90;;
65279;SDS011;51878;55.748;48.742;2023-05-14T22:08:58;6.70;;;1.50;;
65279;SDS011;51878;55.748;48.742;2023-05-14T22:14:00;1.05;;;1.00;;
65279;SDS011;51878;55.748;48.742;2023-05-14T22:19:02;3.28;;;1.13;;
65279;SDS011;51878;55.748;48.742;2023-05-14T22:24:07;0.90;;;0.90;;
65279;SDS011;51878;55.748;48.742;2023-05-14T22:29:09;2.58;;;1.00;;
65279;SDS011;51878;55.748;48.742;2023-05-14T22:34:11;1.20;;;1.10;;
65279;SDS011;51878;55.748;48.742;2023-05-14T22:39:13;4.05;;;0.93;;
65279;SDS011;51878;55.748;48.742;2023-05-14T22:44:21;1.10;;;1.02;;
65279;SDS011;51878;55.748;48.742;2023-05-14T22:49:24;0.90;;;0.90;;
65279;SDS011;51878;55.748;48.742;2023-05-14T22:54:26;5.07;;;1.10;;
65279;SDS011;51878;55.748;48.742;2023-05-14T22:59:28;3.15;;;1.13;;
65279;SDS011;51878;55.748;48.742;2023-05-14T23:04:31;1.00;;;1.00;;
65279;SDS011;51878;55.748;48.742;2023-05-14T23:09:33;1.40;;;1.27;;
65279;SDS011;51878;55.748;48.742;2023-05-14T23:14:35;4.20;;;0.85;;
65279;SDS011;51878;55.748;48.742;2023-05-14T23:19:37;1.50;;;0.90;;
65279;SDS011;51878;55.748;48.742;2023-05-14T23:24:39;2.75;;;1.17;;
65279;SDS011;51878;55.748;48.742;2023-05-14T23:29:42;0.90;;;0.90;;
65279;SDS011;51878;55.748;48.742;2023-05-14T23:34:44;2.00;;;1.38;;
65279;SDS011;51878;55.748;48.742;2023-05-14T23:39:46;3.28;;;0.90;;
65279;SDS011;51878;55.748;48.742;2023-05-14T23:44:48;1.35;;;1.10;;
65279;SDS011;51878;55.748;48.742;2023-05-14T23:49:51;1.77;;;1.00;;
65279;SDS011;51878;55.748;48.742;2023-05-14T23:54:53;1.38;;;1.05;;
65279;SDS011;51878;55.748;48.742;2023-05-14T23:59:55;1.45;;;1.02;;
